South Teddington, United Kingdom
Current Conditions -  °F | °C
As of 8:50 PM on Saturday 25 Oct 2014 (Local Time) from EGLL Reporting Station
Few Clouds Few Clouds  
Wind Chill: 13°   Ceiling: Unl
Heat Index: 13°   Visibility: 6mi
Dew Point:   Wind: 9mph
Humidity: 77%   Direction: 220°SW
Pressure: 30.12"   Gusts: NA
Location:  51.43°N, 0.45°W
Report Text: EGLL 251950Z 22008KT 190V250 9999 FEW041 13/09 Q1020 NOSIG
Loading
Personal Weather Stations






























Interactive Weather Map
Tropical Storm Tracking
New forecast layout! Learn more

10-Day Weather Forecast

Advertisements
Track Severe Weather on mobile